<?xml version="1.0" encoding="UTF-8" standalone="no" ?>
<gpx xmlns="http://www.topografix.com/GPX/1/1" xmlns:xsi="http://www.w3.org/2001/XMLSchema-instance" xsi:schemaLocation="http://www.topografix.com/GPX/1/1 http://www.topografix.com/GPX/1/1/gpx.xsd" version="1.1" creator="VisuGPX - https://www.visugpx.com">
  <metadata>
    <name>La Massingienne 2017</name>
    <desc><![CDATA[Course de 16 km à Massingy en Haute Savoie]]></desc>
  </metadata>
  <trk>
    <name><![CDATA[Sequence 1]]></name>
    <trkseg>
      <trkpt lat="45.82894" lon="5.91977">
        <ele>535</ele>
        <time>2017-03-11T08:19:51Z</time>
      </trkpt>
      <trkpt lat="45.82893" lon="5.9198">
        <ele>537</ele>
        <time>2017-03-11T08:20:02Z</time>
      </trkpt>
      <trkpt lat="45.82895" lon="5.92054">
        <ele>540</ele>
        <time>2017-03-11T08:20:21Z</time>
      </trkpt>
      <trkpt lat="45.82913" lon="5.92106">
        <ele>539</ele>
        <time>2017-03-11T08:20:33Z</time>
      </trkpt>
      <trkpt lat="45.83009" lon="5.92442">
        <ele>522</ele>
        <time>2017-03-11T08:21:49Z</time>
      </trkpt>
      <trkpt lat="45.83011" lon="5.92454">
        <ele>525</ele>
        <time>2017-03-11T08:21:52Z</time>
      </trkpt>
      <trkpt lat="45.83014" lon="5.92505">
        <ele>522</ele>
        <time>2017-03-11T08:22:03Z</time>
      </trkpt>
      <trkpt lat="45.8301" lon="5.92552">
        <ele>513</ele>
        <time>2017-03-11T08:22:14Z</time>
      </trkpt>
      <trkpt lat="45.82998" lon="5.92598">
        <ele>505</ele>
        <time>2017-03-11T08:22:27Z</time>
      </trkpt>
      <trkpt lat="45.82988" lon="5.92647">
        <ele>491</ele>
        <time>2017-03-11T08:22:46Z</time>
      </trkpt>
      <trkpt lat="45.82989" lon="5.9265">
        <ele>490</ele>
        <time>2017-03-11T08:22:47Z</time>
      </trkpt>
      <trkpt lat="45.82986" lon="5.92694">
        <ele>480</ele>
        <time>2017-03-11T08:22:58Z</time>
      </trkpt>
      <trkpt lat="45.83007" lon="5.9272">
        <ele>482</ele>
        <time>2017-03-11T08:23:09Z</time>
      </trkpt>
      <trkpt lat="45.83033" lon="5.92753">
        <ele>479</ele>
        <time>2017-03-11T08:23:20Z</time>
      </trkpt>
      <trkpt lat="45.83059" lon="5.92786">
        <ele>478</ele>
        <time>2017-03-11T08:23:31Z</time>
      </trkpt>
      <trkpt lat="45.83087" lon="5.92821">
        <ele>476</ele>
        <time>2017-03-11T08:23:43Z</time>
      </trkpt>
      <trkpt lat="45.83112" lon="5.92854">
        <ele>474</ele>
        <time>2017-03-11T08:23:54Z</time>
      </trkpt>
      <trkpt lat="45.83128" lon="5.92901">
        <ele>470</ele>
        <time>2017-03-11T08:24:05Z</time>
      </trkpt>
      <trkpt lat="45.83112" lon="5.92965">
        <ele>461</ele>
        <time>2017-03-11T08:24:19Z</time>
      </trkpt>
      <trkpt lat="45.83122" lon="5.92983">
        <ele>464</ele>
        <time>2017-03-11T08:24:26Z</time>
      </trkpt>
      <trkpt lat="45.83153" lon="5.92985">
        <ele>469</ele>
        <time>2017-03-11T08:24:37Z</time>
      </trkpt>
      <trkpt lat="45.83173" lon="5.93003">
        <ele>469</ele>
        <time>2017-03-11T08:24:48Z</time>
      </trkpt>
      <trkpt lat="45.83183" lon="5.93045">
        <ele>464</ele>
        <time>2017-03-11T08:24:59Z</time>
      </trkpt>
      <trkpt lat="45.83205" lon="5.93076">
        <ele>460</ele>
        <time>2017-03-11T08:25:10Z</time>
      </trkpt>
      <trkpt lat="45.83254" lon="5.93098">
        <ele>460</ele>
        <time>2017-03-11T08:25:28Z</time>
      </trkpt>
      <trkpt lat="45.83264" lon="5.931">
        <ele>455</ele>
        <time>2017-03-11T08:25:32Z</time>
      </trkpt>
      <trkpt lat="45.83284" lon="5.93134">
        <ele>441</ele>
        <time>2017-03-11T08:25:43Z</time>
      </trkpt>
      <trkpt lat="45.83298" lon="5.93165">
        <ele>443</ele>
        <time>2017-03-11T08:25:54Z</time>
      </trkpt>
      <trkpt lat="45.83318" lon="5.93224">
        <ele>437</ele>
        <time>2017-03-11T08:26:13Z</time>
      </trkpt>
      <trkpt lat="45.83333" lon="5.93223">
        <ele>435</ele>
        <time>2017-03-11T08:26:18Z</time>
      </trkpt>
      <trkpt lat="45.83331" lon="5.9326">
        <ele>427</ele>
        <time>2017-03-11T08:26:27Z</time>
      </trkpt>
      <trkpt lat="45.8328" lon="5.93298">
        <ele>429</ele>
        <time>2017-03-11T08:26:47Z</time>
      </trkpt>
      <trkpt lat="45.83264" lon="5.93317">
        <ele>434</ele>
        <time>2017-03-11T08:26:54Z</time>
      </trkpt>
      <trkpt lat="45.83248" lon="5.93378">
        <ele>435</ele>
        <time>2017-03-11T08:27:10Z</time>
      </trkpt>
      <trkpt lat="45.83249" lon="5.93381">
        <ele>435</ele>
        <time>2017-03-11T08:27:11Z</time>
      </trkpt>
      <trkpt lat="45.83279" lon="5.9344">
        <ele>434</ele>
        <time>2017-03-11T08:27:33Z</time>
      </trkpt>
      <trkpt lat="45.83288" lon="5.93454">
        <ele>432</ele>
        <time>2017-03-11T08:27:39Z</time>
      </trkpt>
      <trkpt lat="45.83294" lon="5.93471">
        <ele>431</ele>
        <time>2017-03-11T08:27:45Z</time>
      </trkpt>
      <trkpt lat="45.83268" lon="5.9347">
        <ele>432</ele>
        <time>2017-03-11T08:28:03Z</time>
      </trkpt>
      <trkpt lat="45.83259" lon="5.93469">
        <ele>433</ele>
        <time>2017-03-11T08:28:07Z</time>
      </trkpt>
      <trkpt lat="45.83227" lon="5.93464">
        <ele>438</ele>
        <time>2017-03-11T08:28:23Z</time>
      </trkpt>
      <trkpt lat="45.83213" lon="5.93459">
        <ele>443</ele>
        <time>2017-03-11T08:28:29Z</time>
      </trkpt>
      <trkpt lat="45.83184" lon="5.93457">
        <ele>447</ele>
        <time>2017-03-11T08:28:40Z</time>
      </trkpt>
      <trkpt lat="45.83141" lon="5.93454">
        <ele>447</ele>
        <time>2017-03-11T08:28:56Z</time>
      </trkpt>
      <trkpt lat="45.83119" lon="5.93462">
        <ele>450</ele>
        <time>2017-03-11T08:29:06Z</time>
      </trkpt>
      <trkpt lat="45.83084" lon="5.93486">
        <ele>446</ele>
        <time>2017-03-11T08:29:23Z</time>
      </trkpt>
      <trkpt lat="45.8308" lon="5.93488">
        <ele>446</ele>
        <time>2017-03-11T08:29:25Z</time>
      </trkpt>
      <trkpt lat="45.83056" lon="5.93503">
        <ele>445</ele>
        <time>2017-03-11T08:29:37Z</time>
      </trkpt>
      <trkpt lat="45.8304" lon="5.93515">
        <ele>447</ele>
        <time>2017-03-11T08:29:46Z</time>
      </trkpt>
      <trkpt lat="45.83022" lon="5.93535">
        <ele>450</ele>
        <time>2017-03-11T08:29:57Z</time>
      </trkpt>
      <trkpt lat="45.83001" lon="5.93567">
        <ele>452</ele>
        <time>2017-03-11T08:30:11Z</time>
      </trkpt>
      <trkpt lat="45.82987" lon="5.93594">
        <ele>453</ele>
        <time>2017-03-11T08:30:20Z</time>
      </trkpt>
      <trkpt lat="45.82958" lon="5.93629">
        <ele>449</ele>
        <time>2017-03-11T08:30:35Z</time>
      </trkpt>
      <trkpt lat="45.82943" lon="5.93641">
        <ele>450</ele>
        <time>2017-03-11T08:30:41Z</time>
      </trkpt>
      <trkpt lat="45.82915" lon="5.93663">
        <ele>450</ele>
        <time>2017-03-11T08:30:52Z</time>
      </trkpt>
      <trkpt lat="45.82867" lon="5.93698">
        <ele>448</ele>
        <time>2017-03-11T08:31:12Z</time>
      </trkpt>
      <trkpt lat="45.82861" lon="5.937">
        <ele>446</ele>
        <time>2017-03-11T08:31:14Z</time>
      </trkpt>
      <trkpt lat="45.82832" lon="5.93719">
        <ele>447</ele>
        <time>2017-03-11T08:31:25Z</time>
      </trkpt>
      <trkpt lat="45.82804" lon="5.93734">
        <ele>447</ele>
        <time>2017-03-11T08:31:36Z</time>
      </trkpt>
      <trkpt lat="45.82775" lon="5.93749">
        <ele>446</ele>
        <time>2017-03-11T08:31:47Z</time>
      </trkpt>
      <trkpt lat="45.82744" lon="5.93762">
        <ele>452</ele>
        <time>2017-03-11T08:31:59Z</time>
      </trkpt>
      <trkpt lat="45.82718" lon="5.93768">
        <ele>450</ele>
        <time>2017-03-11T08:32:09Z</time>
      </trkpt>
      <trkpt lat="45.82689" lon="5.93772">
        <ele>449</ele>
        <time>2017-03-11T08:32:20Z</time>
      </trkpt>
      <trkpt lat="45.82661" lon="5.93767">
        <ele>449</ele>
        <time>2017-03-11T08:32:31Z</time>
      </trkpt>
      <trkpt lat="45.82634" lon="5.93756">
        <ele>449</ele>
        <time>2017-03-11T08:32:42Z</time>
      </trkpt>
      <trkpt lat="45.82606" lon="5.9374">
        <ele>447</ele>
        <time>2017-03-11T08:32:53Z</time>
      </trkpt>
      <trkpt lat="45.8258" lon="5.93725">
        <ele>444</ele>
        <time>2017-03-11T08:33:04Z</time>
      </trkpt>
      <trkpt lat="45.82552" lon="5.93704">
        <ele>444</ele>
        <time>2017-03-11T08:33:16Z</time>
      </trkpt>
      <trkpt lat="45.82527" lon="5.93662">
        <ele>448</ele>
        <time>2017-03-11T08:33:34Z</time>
      </trkpt>
      <trkpt lat="45.8251" lon="5.93647">
        <ele>449</ele>
        <time>2017-03-11T08:33:43Z</time>
      </trkpt>
      <trkpt lat="45.82493" lon="5.93633">
        <ele>452</ele>
        <time>2017-03-11T08:33:51Z</time>
      </trkpt>
      <trkpt lat="45.82469" lon="5.93613">
        <ele>453</ele>
        <time>2017-03-11T08:34:03Z</time>
      </trkpt>
      <trkpt lat="45.82452" lon="5.936">
        <ele>452</ele>
        <time>2017-03-11T08:34:11Z</time>
      </trkpt>
      <trkpt lat="45.82408" lon="5.9358">
        <ele>451</ele>
        <time>2017-03-11T08:34:28Z</time>
      </trkpt>
      <trkpt lat="45.82398" lon="5.93571">
        <ele>449</ele>
        <time>2017-03-11T08:34:32Z</time>
      </trkpt>
      <trkpt lat="45.82364" lon="5.93535">
        <ele>445</ele>
        <time>2017-03-11T08:34:45Z</time>
      </trkpt>
      <trkpt lat="45.82336" lon="5.93495">
        <ele>443</ele>
        <time>2017-03-11T08:34:58Z</time>
      </trkpt>
      <trkpt lat="45.82313" lon="5.93484">
        <ele>445</ele>
        <time>2017-03-11T08:35:09Z</time>
      </trkpt>
      <trkpt lat="45.82223" lon="5.93436">
        <ele>443</ele>
        <time>2017-03-11T08:35:38Z</time>
      </trkpt>
      <trkpt lat="45.82221" lon="5.93501">
        <ele>442</ele>
        <time>2017-03-11T08:35:53Z</time>
      </trkpt>
      <trkpt lat="45.82223" lon="5.93552">
        <ele>442</ele>
        <time>2017-03-11T08:36:05Z</time>
      </trkpt>
      <trkpt lat="45.82219" lon="5.9358">
        <ele>437</ele>
        <time>2017-03-11T08:36:11Z</time>
      </trkpt>
      <trkpt lat="45.82188" lon="5.93627">
        <ele>438</ele>
        <time>2017-03-11T08:36:26Z</time>
      </trkpt>
      <trkpt lat="45.8216" lon="5.93645">
        <ele>433</ele>
        <time>2017-03-11T08:36:36Z</time>
      </trkpt>
      <trkpt lat="45.82147" lon="5.93678">
        <ele>430</ele>
        <time>2017-03-11T08:36:44Z</time>
      </trkpt>
      <trkpt lat="45.82205" lon="5.93811">
        <ele>417</ele>
        <time>2017-03-11T08:37:17Z</time>
      </trkpt>
      <trkpt lat="45.82284" lon="5.93992">
        <ele>400</ele>
        <time>2017-03-11T08:38:01Z</time>
      </trkpt>
      <trkpt lat="45.82321" lon="5.94131">
        <ele>394</ele>
        <time>2017-03-11T08:38:32Z</time>
      </trkpt>
      <trkpt lat="45.82309" lon="5.94189">
        <ele>390</ele>
        <time>2017-03-11T08:38:45Z</time>
      </trkpt>
      <trkpt lat="45.82288" lon="5.94277">
        <ele>387</ele>
        <time>2017-03-11T08:39:04Z</time>
      </trkpt>
      <trkpt lat="45.82248" lon="5.94342">
        <ele>384</ele>
        <time>2017-03-11T08:39:22Z</time>
      </trkpt>
      <trkpt lat="45.82234" lon="5.9431">
        <ele>379</ele>
        <time>2017-03-11T08:39:31Z</time>
      </trkpt>
      <trkpt lat="45.82223" lon="5.94282">
        <ele>380</ele>
        <time>2017-03-11T08:39:41Z</time>
      </trkpt>
      <trkpt lat="45.82189" lon="5.94285">
        <ele>386</ele>
        <time>2017-03-11T08:39:55Z</time>
      </trkpt>
      <trkpt lat="45.82174" lon="5.9428">
        <ele>386</ele>
        <time>2017-03-11T08:40:02Z</time>
      </trkpt>
      <trkpt lat="45.82158" lon="5.94264">
        <ele>387</ele>
        <time>2017-03-11T08:40:13Z</time>
      </trkpt>
      <trkpt lat="45.82153" lon="5.94248">
        <ele>390</ele>
        <time>2017-03-11T08:40:24Z</time>
      </trkpt>
      <trkpt lat="45.82145" lon="5.9423">
        <ele>392</ele>
        <time>2017-03-11T08:40:37Z</time>
      </trkpt>
      <trkpt lat="45.82143" lon="5.94216">
        <ele>397</ele>
        <time>2017-03-11T08:40:46Z</time>
      </trkpt>
      <trkpt lat="45.82142" lon="5.94199">
        <ele>401</ele>
        <time>2017-03-11T08:40:57Z</time>
      </trkpt>
      <trkpt lat="45.82135" lon="5.94172">
        <ele>399</ele>
        <time>2017-03-11T08:41:12Z</time>
      </trkpt>
      <trkpt lat="45.82131" lon="5.94159">
        <ele>400</ele>
        <time>2017-03-11T08:41:19Z</time>
      </trkpt>
      <trkpt lat="45.82117" lon="5.94141">
        <ele>408</ele>
        <time>2017-03-11T08:41:36Z</time>
      </trkpt>
      <trkpt lat="45.8211" lon="5.94138">
        <ele>408</ele>
        <time>2017-03-11T08:41:41Z</time>
      </trkpt>
      <trkpt lat="45.82098" lon="5.94129">
        <ele>412</ele>
        <time>2017-03-11T08:41:53Z</time>
      </trkpt>
      <trkpt lat="45.8208" lon="5.94121">
        <ele>414</ele>
        <time>2017-03-11T08:42:08Z</time>
      </trkpt>
      <trkpt lat="45.8206" lon="5.94112">
        <ele>418</ele>
        <time>2017-03-11T08:42:23Z</time>
      </trkpt>
      <trkpt lat="45.82058" lon="5.9411">
        <ele>417</ele>
        <time>2017-03-11T08:42:25Z</time>
      </trkpt>
      <trkpt lat="45.82026" lon="5.94093">
        <ele>422</ele>
        <time>2017-03-11T08:42:46Z</time>
      </trkpt>
      <trkpt lat="45.82019" lon="5.9409">
        <ele>421</ele>
        <time>2017-03-11T08:42:51Z</time>
      </trkpt>
      <trkpt lat="45.82007" lon="5.94085">
        <ele>422</ele>
        <time>2017-03-11T08:43:00Z</time>
      </trkpt>
      <trkpt lat="45.81997" lon="5.94078">
        <ele>425</ele>
        <time>2017-03-11T08:43:09Z</time>
      </trkpt>
      <trkpt lat="45.81984" lon="5.94067">
        <ele>427</ele>
        <time>2017-03-11T08:43:20Z</time>
      </trkpt>
      <trkpt lat="45.81971" lon="5.9406">
        <ele>429</ele>
        <time>2017-03-11T08:43:31Z</time>
      </trkpt>
      <trkpt lat="45.81955" lon="5.94053">
        <ele>428</ele>
        <time>2017-03-11T08:43:42Z</time>
      </trkpt>
      <trkpt lat="45.81939" lon="5.94048">
        <ele>431</ele>
        <time>2017-03-11T08:43:53Z</time>
      </trkpt>
      <trkpt lat="45.81924" lon="5.94041">
        <ele>433</ele>
        <time>2017-03-11T08:44:04Z</time>
      </trkpt>
      <trkpt lat="45.81908" lon="5.94034">
        <ele>439</ele>
        <time>2017-03-11T08:44:18Z</time>
      </trkpt>
      <trkpt lat="45.81898" lon="5.94034">
        <ele>441</ele>
        <time>2017-03-11T08:44:26Z</time>
      </trkpt>
      <trkpt lat="45.81884" lon="5.9404">
        <ele>443</ele>
        <time>2017-03-11T08:44:37Z</time>
      </trkpt>
      <trkpt lat="45.8187" lon="5.94047">
        <ele>448</ele>
        <time>2017-03-11T08:44:48Z</time>
      </trkpt>
      <trkpt lat="45.81856" lon="5.94053">
        <ele>450</ele>
        <time>2017-03-11T08:44:59Z</time>
      </trkpt>
      <trkpt lat="45.81841" lon="5.94055">
        <ele>452</ele>
        <time>2017-03-11T08:45:10Z</time>
      </trkpt>
      <trkpt lat="45.81824" lon="5.94065">
        <ele>456</ele>
        <time>2017-03-11T08:45:23Z</time>
      </trkpt>
      <trkpt lat="45.81817" lon="5.94081">
        <ele>457</ele>
        <time>2017-03-11T08:45:32Z</time>
      </trkpt>
      <trkpt lat="45.81795" lon="5.94101">
        <ele>457</ele>
        <time>2017-03-11T08:45:49Z</time>
      </trkpt>
      <trkpt lat="45.8178" lon="5.94108">
        <ele>460</ele>
        <time>2017-03-11T08:46:01Z</time>
      </trkpt>
      <trkpt lat="45.81764" lon="5.94108">
        <ele>462</ele>
        <time>2017-03-11T08:46:12Z</time>
      </trkpt>
      <trkpt lat="45.81749" lon="5.94105">
        <ele>464</ele>
        <time>2017-03-11T08:46:23Z</time>
      </trkpt>
      <trkpt lat="45.81733" lon="5.94104">
        <ele>465</ele>
        <time>2017-03-11T08:46:34Z</time>
      </trkpt>
      <trkpt lat="45.81717" lon="5.94098">
        <ele>467</ele>
        <time>2017-03-11T08:46:45Z</time>
      </trkpt>
      <trkpt lat="45.81702" lon="5.94087">
        <ele>469</ele>
        <time>2017-03-11T08:46:56Z</time>
      </trkpt>
      <trkpt lat="45.81687" lon="5.94077">
        <ele>469</ele>
        <time>2017-03-11T08:47:07Z</time>
      </trkpt>
      <trkpt lat="45.81671" lon="5.94073">
        <ele>472</ele>
        <time>2017-03-11T08:47:18Z</time>
      </trkpt>
      <trkpt lat="45.81644" lon="5.94066">
        <ele>481</ele>
        <time>2017-03-11T08:47:38Z</time>
      </trkpt>
      <trkpt lat="45.81641" lon="5.9406">
        <ele>480</ele>
        <time>2017-03-11T08:47:41Z</time>
      </trkpt>
      <trkpt lat="45.81631" lon="5.94037">
        <ele>481</ele>
        <time>2017-03-11T08:47:54Z</time>
      </trkpt>
      <trkpt lat="45.81622" lon="5.94023">
        <ele>483</ele>
        <time>2017-03-11T08:48:02Z</time>
      </trkpt>
      <trkpt lat="45.81604" lon="5.94011">
        <ele>483</ele>
        <time>2017-03-11T08:48:14Z</time>
      </trkpt>
      <trkpt lat="45.81583" lon="5.94002">
        <ele>486</ele>
        <time>2017-03-11T08:48:27Z</time>
      </trkpt>
      <trkpt lat="45.8156" lon="5.93994">
        <ele>488</ele>
        <time>2017-03-11T08:48:42Z</time>
      </trkpt>
      <trkpt lat="45.81552" lon="5.93989">
        <ele>489</ele>
        <time>2017-03-11T08:48:47Z</time>
      </trkpt>
      <trkpt lat="45.81517" lon="5.93958">
        <ele>488</ele>
        <time>2017-03-11T08:49:06Z</time>
      </trkpt>
      <trkpt lat="45.81509" lon="5.93948">
        <ele>488</ele>
        <time>2017-03-11T08:49:10Z</time>
      </trkpt>
      <trkpt lat="45.81488" lon="5.93926">
        <ele>488</ele>
        <time>2017-03-11T08:49:20Z</time>
      </trkpt>
      <trkpt lat="45.81478" lon="5.93922">
        <ele>491</ele>
        <time>2017-03-11T08:49:32Z</time>
      </trkpt>
      <trkpt lat="45.81464" lon="5.9391">
        <ele>489</ele>
        <time>2017-03-11T08:49:42Z</time>
      </trkpt>
      <trkpt lat="45.81436" lon="5.93894">
        <ele>493</ele>
        <time>2017-03-11T08:49:56Z</time>
      </trkpt>
      <trkpt lat="45.81416" lon="5.93882">
        <ele>492</ele>
        <time>2017-03-11T08:50:05Z</time>
      </trkpt>
      <trkpt lat="45.81391" lon="5.93863">
        <ele>491</ele>
        <time>2017-03-11T08:50:16Z</time>
      </trkpt>
      <trkpt lat="45.81368" lon="5.93832">
        <ele>487</ele>
        <time>2017-03-11T08:50:27Z</time>
      </trkpt>
      <trkpt lat="45.81349" lon="5.93804">
        <ele>489</ele>
        <time>2017-03-11T08:50:37Z</time>
      </trkpt>
      <trkpt lat="45.81328" lon="5.93774">
        <ele>489</ele>
        <time>2017-03-11T08:50:48Z</time>
      </trkpt>
      <trkpt lat="45.81304" lon="5.93745">
        <ele>493</ele>
        <time>2017-03-11T08:51:00Z</time>
      </trkpt>
      <trkpt lat="45.81281" lon="5.93716">
        <ele>490</ele>
        <time>2017-03-11T08:51:11Z</time>
      </trkpt>
      <trkpt lat="45.81253" lon="5.93693">
        <ele>487</ele>
        <time>2017-03-11T08:51:22Z</time>
      </trkpt>
      <trkpt lat="45.8121" lon="5.93679">
        <ele>488</ele>
        <time>2017-03-11T08:51:38Z</time>
      </trkpt>
      <trkpt lat="45.81185" lon="5.93671">
        <ele>487</ele>
        <time>2017-03-11T08:51:47Z</time>
      </trkpt>
      <trkpt lat="45.8116" lon="5.93654">
        <ele>485</ele>
        <time>2017-03-11T08:51:59Z</time>
      </trkpt>
      <trkpt lat="45.81134" lon="5.93634">
        <ele>486</ele>
        <time>2017-03-11T08:52:11Z</time>
      </trkpt>
      <trkpt lat="45.81114" lon="5.93617">
        <ele>485</ele>
        <time>2017-03-11T08:52:20Z</time>
      </trkpt>
      <trkpt lat="45.81096" lon="5.93607">
        <ele>486</ele>
        <time>2017-03-11T08:52:28Z</time>
      </trkpt>
      <trkpt lat="45.81071" lon="5.93591">
        <ele>485</ele>
        <time>2017-03-11T08:52:39Z</time>
      </trkpt>
      <trkpt lat="45.81027" lon="5.93523">
        <ele>483</ele>
        <time>2017-03-11T08:53:08Z</time>
      </trkpt>
      <trkpt lat="45.81011" lon="5.93505">
        <ele>483</ele>
        <time>2017-03-11T08:53:15Z</time>
      </trkpt>
      <trkpt lat="45.80967" lon="5.9346">
        <ele>480</ele>
        <time>2017-03-11T08:53:34Z</time>
      </trkpt>
      <trkpt lat="45.80965" lon="5.93458">
        <ele>480</ele>
        <time>2017-03-11T08:53:35Z</time>
      </trkpt>
      <trkpt lat="45.80938" lon="5.93432">
        <ele>475</ele>
        <time>2017-03-11T08:53:46Z</time>
      </trkpt>
      <trkpt lat="45.80916" lon="5.934">
        <ele>468</ele>
        <time>2017-03-11T08:53:57Z</time>
      </trkpt>
      <trkpt lat="45.80897" lon="5.93366">
        <ele>467</ele>
        <time>2017-03-11T08:54:08Z</time>
      </trkpt>
      <trkpt lat="45.80872" lon="5.93338">
        <ele>468</ele>
        <time>2017-03-11T08:54:19Z</time>
      </trkpt>
      <trkpt lat="45.80853" lon="5.93314">
        <ele>465</ele>
        <time>2017-03-11T08:54:32Z</time>
      </trkpt>
      <trkpt lat="45.80847" lon="5.93282">
        <ele>470</ele>
        <time>2017-03-11T08:54:44Z</time>
      </trkpt>
      <trkpt lat="45.80846" lon="5.93263">
        <ele>470</ele>
        <time>2017-03-11T08:54:52Z</time>
      </trkpt>
      <trkpt lat="45.80812" lon="5.93215">
        <ele>473</ele>
        <time>2017-03-11T08:55:13Z</time>
      </trkpt>
      <trkpt lat="45.80808" lon="5.93213">
        <ele>472</ele>
        <time>2017-03-11T08:55:15Z</time>
      </trkpt>
      <trkpt lat="45.80781" lon="5.9319">
        <ele>472</ele>
        <time>2017-03-11T08:55:30Z</time>
      </trkpt>
      <trkpt lat="45.80775" lon="5.93185">
        <ele>473</ele>
        <time>2017-03-11T08:55:38Z</time>
      </trkpt>
      <trkpt lat="45.80764" lon="5.93178">
        <ele>477</ele>
        <time>2017-03-11T08:55:48Z</time>
      </trkpt>
      <trkpt lat="45.80749" lon="5.93171">
        <ele>479</ele>
        <time>2017-03-11T08:56:00Z</time>
      </trkpt>
      <trkpt lat="45.80728" lon="5.93164">
        <ele>483</ele>
        <time>2017-03-11T08:56:16Z</time>
      </trkpt>
      <trkpt lat="45.80722" lon="5.93159">
        <ele>484</ele>
        <time>2017-03-11T08:56:21Z</time>
      </trkpt>
      <trkpt lat="45.8071" lon="5.93149">
        <ele>485</ele>
        <time>2017-03-11T08:56:31Z</time>
      </trkpt>
      <trkpt lat="45.80693" lon="5.9314">
        <ele>490</ele>
        <time>2017-03-11T08:56:45Z</time>
      </trkpt>
      <trkpt lat="45.80682" lon="5.93135">
        <ele>492</ele>
        <time>2017-03-11T08:56:53Z</time>
      </trkpt>
      <trkpt lat="45.80668" lon="5.93129">
        <ele>494</ele>
        <time>2017-03-11T08:57:04Z</time>
      </trkpt>
      <trkpt lat="45.80653" lon="5.93121">
        <ele>496</ele>
        <time>2017-03-11T08:57:15Z</time>
      </trkpt>
      <trkpt lat="45.80638" lon="5.93116">
        <ele>499</ele>
        <time>2017-03-11T08:57:26Z</time>
      </trkpt>
      <trkpt lat="45.80623" lon="5.93111">
        <ele>501</ele>
        <time>2017-03-11T08:57:37Z</time>
      </trkpt>
      <trkpt lat="45.80606" lon="5.93106">
        <ele>501</ele>
        <time>2017-03-11T08:57:48Z</time>
      </trkpt>
      <trkpt lat="45.80568" lon="5.93102">
        <ele>501</ele>
        <time>2017-03-11T08:58:04Z</time>
      </trkpt>
      <trkpt lat="45.80553" lon="5.931">
        <ele>502</ele>
        <time>2017-03-11T08:58:11Z</time>
      </trkpt>
      <trkpt lat="45.80528" lon="5.931">
        <ele>502</ele>
        <time>2017-03-11T08:58:21Z</time>
      </trkpt>
      <trkpt lat="45.8049" lon="5.9309">
        <ele>503</ele>
        <time>2017-03-11T08:58:37Z</time>
      </trkpt>
      <trkpt lat="45.80464" lon="5.93081">
        <ele>504</ele>
        <time>2017-03-11T08:58:48Z</time>
      </trkpt>
      <trkpt lat="45.80449" lon="5.93068">
        <ele>507</ele>
        <time>2017-03-11T08:58:56Z</time>
      </trkpt>
      <trkpt lat="45.80425" lon="5.93062">
        <ele>505</ele>
        <time>2017-03-11T08:59:06Z</time>
      </trkpt>
      <trkpt lat="45.804" lon="5.93075">
        <ele>506</ele>
        <time>2017-03-11T08:59:17Z</time>
      </trkpt>
      <trkpt lat="45.80371" lon="5.93065">
        <ele>508</ele>
        <time>2017-03-11T08:59:29Z</time>
      </trkpt>
      <trkpt lat="45.80349" lon="5.93048">
        <ele>507</ele>
        <time>2017-03-11T08:59:39Z</time>
      </trkpt>
      <trkpt lat="45.80324" lon="5.93039">
        <ele>510</ele>
        <time>2017-03-11T08:59:50Z</time>
      </trkpt>
      <trkpt lat="45.80273" lon="5.93021">
        <ele>508</ele>
        <time>2017-03-11T09:00:09Z</time>
      </trkpt>
      <trkpt lat="45.80272" lon="5.93015">
        <ele>508</ele>
        <time>2017-03-11T09:00:11Z</time>
      </trkpt>
      <trkpt lat="45.80263" lon="5.92958">
        <ele>511</ele>
        <time>2017-03-11T09:00:30Z</time>
      </trkpt>
      <trkpt lat="45.80259" lon="5.92951">
        <ele>512</ele>
        <time>2017-03-11T09:00:33Z</time>
      </trkpt>
      <trkpt lat="45.80248" lon="5.92927">
        <ele>512</ele>
        <time>2017-03-11T09:00:49Z</time>
      </trkpt>
      <trkpt lat="45.80242" lon="5.92913">
        <ele>513</ele>
        <time>2017-03-11T09:00:57Z</time>
      </trkpt>
      <trkpt lat="45.80235" lon="5.92897">
        <ele>515</ele>
        <time>2017-03-11T09:01:06Z</time>
      </trkpt>
      <trkpt lat="45.80228" lon="5.92875">
        <ele>518</ele>
        <time>2017-03-11T09:01:17Z</time>
      </trkpt>
      <trkpt lat="45.80225" lon="5.92854">
        <ele>521</ele>
        <time>2017-03-11T09:01:28Z</time>
      </trkpt>
      <trkpt lat="45.80224" lon="5.92833">
        <ele>522</ele>
        <time>2017-03-11T09:01:39Z</time>
      </trkpt>
      <trkpt lat="45.80221" lon="5.92812">
        <ele>526</ele>
        <time>2017-03-11T09:01:50Z</time>
      </trkpt>
      <trkpt lat="45.80209" lon="5.92794">
        <ele>525</ele>
        <time>2017-03-11T09:02:02Z</time>
      </trkpt>
      <trkpt lat="45.80191" lon="5.92784">
        <ele>525</ele>
        <time>2017-03-11T09:02:12Z</time>
      </trkpt>
      <trkpt lat="45.80174" lon="5.92771">
        <ele>525</ele>
        <time>2017-03-11T09:02:23Z</time>
      </trkpt>
      <trkpt lat="45.80144" lon="5.92748">
        <ele>520</ele>
        <time>2017-03-11T09:02:44Z</time>
      </trkpt>
      <trkpt lat="45.80143" lon="5.92747">
        <ele>520</ele>
        <time>2017-03-11T09:02:45Z</time>
      </trkpt>
      <trkpt lat="45.80132" lon="5.92732">
        <ele>524</ele>
        <time>2017-03-11T09:02:56Z</time>
      </trkpt>
      <trkpt lat="45.80123" lon="5.92717">
        <ele>528</ele>
        <time>2017-03-11T09:03:07Z</time>
      </trkpt>
      <trkpt lat="45.80099" lon="5.92696">
        <ele>533</ele>
        <time>2017-03-11T09:03:27Z</time>
      </trkpt>
      <trkpt lat="45.80093" lon="5.92679">
        <ele>544</ele>
        <time>2017-03-11T09:03:38Z</time>
      </trkpt>
      <trkpt lat="45.80092" lon="5.92676">
        <ele>544</ele>
        <time>2017-03-11T09:03:40Z</time>
      </trkpt>
      <trkpt lat="45.80081" lon="5.92654">
        <ele>555</ele>
        <time>2017-03-11T09:03:55Z</time>
      </trkpt>
      <trkpt lat="45.80068" lon="5.92641">
        <ele>556</ele>
        <time>2017-03-11T09:04:07Z</time>
      </trkpt>
      <trkpt lat="45.80055" lon="5.92629">
        <ele>557</ele>
        <time>2017-03-11T09:04:18Z</time>
      </trkpt>
      <trkpt lat="45.80035" lon="5.92612">
        <ele>563</ele>
        <time>2017-03-11T09:04:33Z</time>
      </trkpt>
      <trkpt lat="45.80032" lon="5.926">
        <ele>566</ele>
        <time>2017-03-11T09:04:41Z</time>
      </trkpt>
      <trkpt lat="45.80031" lon="5.92594">
        <ele>565</ele>
        <time>2017-03-11T09:04:46Z</time>
      </trkpt>
      <trkpt lat="45.80032" lon="5.92571">
        <ele>554</ele>
        <time>2017-03-11T09:04:58Z</time>
      </trkpt>
      <trkpt lat="45.80041" lon="5.92539">
        <ele>548</ele>
        <time>2017-03-11T09:05:15Z</time>
      </trkpt>
      <trkpt lat="45.80046" lon="5.9252">
        <ele>547</ele>
        <time>2017-03-11T09:05:26Z</time>
      </trkpt>
      <trkpt lat="45.80047" lon="5.92514">
        <ele>546</ele>
        <time>2017-03-11T09:05:30Z</time>
      </trkpt>
      <trkpt lat="45.80058" lon="5.92487">
        <ele>554</ele>
        <time>2017-03-11T09:05:50Z</time>
      </trkpt>
      <trkpt lat="45.80059" lon="5.9246">
        <ele>568</ele>
        <time>2017-03-11T09:06:01Z</time>
      </trkpt>
      <trkpt lat="45.80059" lon="5.92455">
        <ele>570</ele>
        <time>2017-03-11T09:06:03Z</time>
      </trkpt>
      <trkpt lat="45.80056" lon="5.92416">
        <ele>579</ele>
        <time>2017-03-11T09:06:24Z</time>
      </trkpt>
      <trkpt lat="45.80054" lon="5.92409">
        <ele>581</ele>
        <time>2017-03-11T09:06:29Z</time>
      </trkpt>
      <trkpt lat="45.80048" lon="5.92402">
        <ele>583</ele>
        <time>2017-03-11T09:06:36Z</time>
      </trkpt>
      <trkpt lat="45.80047" lon="5.92381">
        <ele>592</ele>
        <time>2017-03-11T09:06:49Z</time>
      </trkpt>
      <trkpt lat="45.80043" lon="5.92367">
        <ele>594</ele>
        <time>2017-03-11T09:06:58Z</time>
      </trkpt>
      <trkpt lat="45.80034" lon="5.92346">
        <ele>593</ele>
        <time>2017-03-11T09:07:09Z</time>
      </trkpt>
      <trkpt lat="45.80018" lon="5.92292">
        <ele>593</ele>
        <time>2017-03-11T09:07:26Z</time>
      </trkpt>
      <trkpt lat="45.80019" lon="5.92276">
        <ele>591</ele>
        <time>2017-03-11T09:07:31Z</time>
      </trkpt>
      <trkpt lat="45.7998" lon="5.92217">
        <ele>595</ele>
        <time>2017-03-11T09:07:50Z</time>
      </trkpt>
      <trkpt lat="45.79949" lon="5.92184">
        <ele>578</ele>
        <time>2017-03-11T09:08:02Z</time>
      </trkpt>
      <trkpt lat="45.79931" lon="5.92163">
        <ele>578</ele>
        <time>2017-03-11T09:08:12Z</time>
      </trkpt>
      <trkpt lat="45.79929" lon="5.92162">
        <ele>579</ele>
        <time>2017-03-11T09:08:16Z</time>
      </trkpt>
      <trkpt lat="45.799" lon="5.92119">
        <ele>577</ele>
        <time>2017-03-11T09:08:32Z</time>
      </trkpt>
      <trkpt lat="45.79889" lon="5.92103">
        <ele>577</ele>
        <time>2017-03-11T09:08:37Z</time>
      </trkpt>
      <trkpt lat="45.79852" lon="5.92016">
        <ele>583</ele>
        <time>2017-03-11T09:09:03Z</time>
      </trkpt>
      <trkpt lat="45.79842" lon="5.91977">
        <ele>588</ele>
        <time>2017-03-11T09:09:15Z</time>
      </trkpt>
      <trkpt lat="45.79838" lon="5.91958">
        <ele>590</ele>
        <time>2017-03-11T09:09:21Z</time>
      </trkpt>
      <trkpt lat="45.79844" lon="5.91919">
        <ele>594</ele>
        <time>2017-03-11T09:09:33Z</time>
      </trkpt>
      <trkpt lat="45.79832" lon="5.91892">
        <ele>589</ele>
        <time>2017-03-11T09:09:47Z</time>
      </trkpt>
      <trkpt lat="45.79807" lon="5.91879">
        <ele>580</ele>
        <time>2017-03-11T09:09:56Z</time>
      </trkpt>
      <trkpt lat="45.79784" lon="5.91857">
        <ele>577</ele>
        <time>2017-03-11T09:10:07Z</time>
      </trkpt>
      <trkpt lat="45.7977" lon="5.91841">
        <ele>577</ele>
        <time>2017-03-11T09:10:16Z</time>
      </trkpt>
      <trkpt lat="45.79749" lon="5.91817">
        <ele>579</ele>
        <time>2017-03-11T09:10:29Z</time>
      </trkpt>
      <trkpt lat="45.79734" lon="5.91796">
        <ele>575</ele>
        <time>2017-03-11T09:10:38Z</time>
      </trkpt>
      <trkpt lat="45.79717" lon="5.91769">
        <ele>575</ele>
        <time>2017-03-11T09:10:49Z</time>
      </trkpt>
      <trkpt lat="45.79698" lon="5.91736">
        <ele>576</ele>
        <time>2017-03-11T09:11:03Z</time>
      </trkpt>
      <trkpt lat="45.7968" lon="5.91715">
        <ele>576</ele>
        <time>2017-03-11T09:11:12Z</time>
      </trkpt>
      <trkpt lat="45.79671" lon="5.91679">
        <ele>585</ele>
        <time>2017-03-11T09:11:31Z</time>
      </trkpt>
      <trkpt lat="45.79671" lon="5.91676">
        <ele>585</ele>
        <time>2017-03-11T09:11:33Z</time>
      </trkpt>
      <trkpt lat="45.79665" lon="5.91658">
        <ele>590</ele>
        <time>2017-03-11T09:11:44Z</time>
      </trkpt>
      <trkpt lat="45.79656" lon="5.91643">
        <ele>594</ele>
        <time>2017-03-11T09:11:55Z</time>
      </trkpt>
      <trkpt lat="45.79645" lon="5.91628">
        <ele>595</ele>
        <time>2017-03-11T09:12:06Z</time>
      </trkpt>
      <trkpt lat="45.79634" lon="5.91612">
        <ele>595</ele>
        <time>2017-03-11T09:12:17Z</time>
      </trkpt>
      <trkpt lat="45.79629" lon="5.91592">
        <ele>599</ele>
        <time>2017-03-11T09:12:28Z</time>
      </trkpt>
      <trkpt lat="45.79635" lon="5.91572">
        <ele>604</ele>
        <time>2017-03-11T09:12:39Z</time>
      </trkpt>
      <trkpt lat="45.79622" lon="5.91512">
        <ele>613</ele>
        <time>2017-03-11T09:12:58Z</time>
      </trkpt>
      <trkpt lat="45.79609" lon="5.91492">
        <ele>609</ele>
        <time>2017-03-11T09:13:06Z</time>
      </trkpt>
      <trkpt lat="45.79602" lon="5.91481">
        <ele>607</ele>
        <time>2017-03-11T09:13:12Z</time>
      </trkpt>
      <trkpt lat="45.79594" lon="5.91465">
        <ele>612</ele>
        <time>2017-03-11T09:13:23Z</time>
      </trkpt>
      <trkpt lat="45.79586" lon="5.9145">
        <ele>619</ele>
        <time>2017-03-11T09:13:34Z</time>
      </trkpt>
      <trkpt lat="45.79573" lon="5.91426">
        <ele>626</ele>
        <time>2017-03-11T09:13:51Z</time>
      </trkpt>
      <trkpt lat="45.79568" lon="5.91417">
        <ele>628</ele>
        <time>2017-03-11T09:13:56Z</time>
      </trkpt>
      <trkpt lat="45.79553" lon="5.9139">
        <ele>624</ele>
        <time>2017-03-11T09:14:13Z</time>
      </trkpt>
      <trkpt lat="45.79543" lon="5.91387">
        <ele>621</ele>
        <time>2017-03-11T09:14:18Z</time>
      </trkpt>
      <trkpt lat="45.79518" lon="5.91377">
        <ele>617</ele>
        <time>2017-03-11T09:14:34Z</time>
      </trkpt>
      <trkpt lat="45.79513" lon="5.91372">
        <ele>615</ele>
        <time>2017-03-11T09:14:40Z</time>
      </trkpt>
      <trkpt lat="45.795" lon="5.9137">
        <ele>626</ele>
        <time>2017-03-11T09:14:51Z</time>
      </trkpt>
      <trkpt lat="45.79486" lon="5.91366">
        <ele>622</ele>
        <time>2017-03-11T09:15:03Z</time>
      </trkpt>
      <trkpt lat="45.79472" lon="5.91353">
        <ele>630</ele>
        <time>2017-03-11T09:15:17Z</time>
      </trkpt>
      <trkpt lat="45.7947" lon="5.91343">
        <ele>630</ele>
        <time>2017-03-11T09:15:24Z</time>
      </trkpt>
      <trkpt lat="45.79452" lon="5.91328">
        <ele>644</ele>
        <time>2017-03-11T09:15:44Z</time>
      </trkpt>
      <trkpt lat="45.79451" lon="5.91327">
        <ele>646</ele>
        <time>2017-03-11T09:15:46Z</time>
      </trkpt>
      <trkpt lat="45.79431" lon="5.91312">
        <ele>648</ele>
        <time>2017-03-11T09:16:05Z</time>
      </trkpt>
      <trkpt lat="45.79407" lon="5.91314">
        <ele>647</ele>
        <time>2017-03-11T09:16:18Z</time>
      </trkpt>
      <trkpt lat="45.79401" lon="5.91314">
        <ele>649</ele>
        <time>2017-03-11T09:16:21Z</time>
      </trkpt>
      <trkpt lat="45.79381" lon="5.91313">
        <ele>646</ele>
        <time>2017-03-11T09:16:31Z</time>
      </trkpt>
      <trkpt lat="45.79351" lon="5.91308">
        <ele>641</ele>
        <time>2017-03-11T09:16:45Z</time>
      </trkpt>
      <trkpt lat="45.79335" lon="5.91303">
        <ele>642</ele>
        <time>2017-03-11T09:16:52Z</time>
      </trkpt>
      <trkpt lat="45.79321" lon="5.91303">
        <ele>645</ele>
        <time>2017-03-11T09:17:03Z</time>
      </trkpt>
      <trkpt lat="45.79294" lon="5.91301">
        <ele>651</ele>
        <time>2017-03-11T09:17:23Z</time>
      </trkpt>
      <trkpt lat="45.7928" lon="5.91299">
        <ele>657</ele>
        <time>2017-03-11T09:17:34Z</time>
      </trkpt>
      <trkpt lat="45.79278" lon="5.91299">
        <ele>658</ele>
        <time>2017-03-11T09:17:36Z</time>
      </trkpt>
      <trkpt lat="45.79266" lon="5.91292">
        <ele>661</ele>
        <time>2017-03-11T09:17:47Z</time>
      </trkpt>
      <trkpt lat="45.79259" lon="5.9128">
        <ele>677</ele>
        <time>2017-03-11T09:18:02Z</time>
      </trkpt>
      <trkpt lat="45.79248" lon="5.91265">
        <ele>687</ele>
        <time>2017-03-11T09:18:14Z</time>
      </trkpt>
      <trkpt lat="45.7924" lon="5.91239">
        <ele>688</ele>
        <time>2017-03-11T09:18:30Z</time>
      </trkpt>
      <trkpt lat="45.79241" lon="5.91224">
        <ele>688</ele>
        <time>2017-03-11T09:18:37Z</time>
      </trkpt>
      <trkpt lat="45.79243" lon="5.91216">
        <ele>683</ele>
        <time>2017-03-11T09:18:42Z</time>
      </trkpt>
      <trkpt lat="45.79246" lon="5.91206">
        <ele>678</ele>
        <time>2017-03-11T09:18:53Z</time>
      </trkpt>
      <trkpt lat="45.7926" lon="5.912">
        <ele>681</ele>
        <time>2017-03-11T09:19:04Z</time>
      </trkpt>
      <trkpt lat="45.79273" lon="5.91186">
        <ele>683</ele>
        <time>2017-03-11T09:19:16Z</time>
      </trkpt>
      <trkpt lat="45.79288" lon="5.91177">
        <ele>682</ele>
        <time>2017-03-11T09:19:26Z</time>
      </trkpt>
      <trkpt lat="45.79314" lon="5.91158">
        <ele>685</ele>
        <time>2017-03-11T09:19:44Z</time>
      </trkpt>
      <trkpt lat="45.79319" lon="5.91152">
        <ele>684</ele>
        <time>2017-03-11T09:19:48Z</time>
      </trkpt>
      <trkpt lat="45.79338" lon="5.91138">
        <ele>680</ele>
        <time>2017-03-11T09:19:59Z</time>
      </trkpt>
      <trkpt lat="45.79365" lon="5.91136">
        <ele>683</ele>
        <time>2017-03-11T09:20:10Z</time>
      </trkpt>
      <trkpt lat="45.79391" lon="5.91132">
        <ele>683</ele>
        <time>2017-03-11T09:20:21Z</time>
      </trkpt>
      <trkpt lat="45.79431" lon="5.91138">
        <ele>690</ele>
        <time>2017-03-11T09:20:38Z</time>
      </trkpt>
      <trkpt lat="45.79439" lon="5.91148">
        <ele>690</ele>
        <time>2017-03-11T09:20:43Z</time>
      </trkpt>
      <trkpt lat="45.79484" lon="5.91152">
        <ele>690</ele>
        <time>2017-03-11T09:21:02Z</time>
      </trkpt>
      <trkpt lat="45.79494" lon="5.91158">
        <ele>690</ele>
        <time>2017-03-11T09:21:07Z</time>
      </trkpt>
      <trkpt lat="45.79536" lon="5.91149">
        <ele>688</ele>
        <time>2017-03-11T09:21:20Z</time>
      </trkpt>
      <trkpt lat="45.79556" lon="5.91147">
        <ele>684</ele>
        <time>2017-03-11T09:21:30Z</time>
      </trkpt>
      <trkpt lat="45.7957" lon="5.91148">
        <ele>683</ele>
        <time>2017-03-11T09:21:38Z</time>
      </trkpt>
      <trkpt lat="45.79609" lon="5.91148">
        <ele>697</ele>
        <time>2017-03-11T09:21:55Z</time>
      </trkpt>
      <trkpt lat="45.79685" lon="5.91169">
        <ele>697</ele>
        <time>2017-03-11T09:22:29Z</time>
      </trkpt>
      <trkpt lat="45.79702" lon="5.91185">
        <ele>699</ele>
        <time>2017-03-11T09:22:35Z</time>
      </trkpt>
      <trkpt lat="45.79758" lon="5.91269">
        <ele>700</ele>
        <time>2017-03-11T09:23:08Z</time>
      </trkpt>
      <trkpt lat="45.79766" lon="5.91282">
        <ele>698</ele>
        <time>2017-03-11T09:23:13Z</time>
      </trkpt>
      <trkpt lat="45.80018" lon="5.91382">
        <ele>675</ele>
        <time>2017-03-11T09:24:40Z</time>
      </trkpt>
      <trkpt lat="45.8012" lon="5.91391">
        <ele>669</ele>
        <time>2017-03-11T09:25:12Z</time>
      </trkpt>
      <trkpt lat="45.80119" lon="5.91389">
        <ele>664</ele>
        <time>2017-03-11T09:25:20Z</time>
      </trkpt>
      <trkpt lat="45.80119" lon="5.91392">
        <ele>660</ele>
        <time>2017-03-11T09:25:27Z</time>
      </trkpt>
      <trkpt lat="45.80139" lon="5.91397">
        <ele>659</ele>
        <time>2017-03-11T09:25:38Z</time>
      </trkpt>
      <trkpt lat="45.80163" lon="5.91408">
        <ele>661</ele>
        <time>2017-03-11T09:25:54Z</time>
      </trkpt>
      <trkpt lat="45.80165" lon="5.91428">
        <ele>659</ele>
        <time>2017-03-11T09:25:59Z</time>
      </trkpt>
      <trkpt lat="45.80189" lon="5.91471">
        <ele>649</ele>
        <time>2017-03-11T09:26:13Z</time>
      </trkpt>
      <trkpt lat="45.80213" lon="5.91481">
        <ele>649</ele>
        <time>2017-03-11T09:26:21Z</time>
      </trkpt>
      <trkpt lat="45.80219" lon="5.91516">
        <ele>642</ele>
        <time>2017-03-11T09:26:32Z</time>
      </trkpt>
      <trkpt lat="45.80286" lon="5.91626">
        <ele>626</ele>
        <time>2017-03-11T09:27:06Z</time>
      </trkpt>
      <trkpt lat="45.80303" lon="5.91641">
        <ele>622</ele>
        <time>2017-03-11T09:27:13Z</time>
      </trkpt>
      <trkpt lat="45.80324" lon="5.91662">
        <ele>621</ele>
        <time>2017-03-11T09:27:22Z</time>
      </trkpt>
      <trkpt lat="45.80272" lon="5.91723">
        <ele>615</ele>
        <time>2017-03-11T09:27:46Z</time>
      </trkpt>
      <trkpt lat="45.8029" lon="5.91741">
        <ele>608</ele>
        <time>2017-03-11T09:27:54Z</time>
      </trkpt>
      <trkpt lat="45.80303" lon="5.91756">
        <ele>607</ele>
        <time>2017-03-11T09:27:59Z</time>
      </trkpt>
      <trkpt lat="45.8043" lon="5.91835">
        <ele>597</ele>
        <time>2017-03-11T09:28:42Z</time>
      </trkpt>
      <trkpt lat="45.8047" lon="5.91855">
        <ele>593</ele>
        <time>2017-03-11T09:28:55Z</time>
      </trkpt>
      <trkpt lat="45.80487" lon="5.91865">
        <ele>596</ele>
        <time>2017-03-11T09:29:01Z</time>
      </trkpt>
      <trkpt lat="45.80513" lon="5.91874">
        <ele>593</ele>
        <time>2017-03-11T09:29:10Z</time>
      </trkpt>
      <trkpt lat="45.80546" lon="5.91878">
        <ele>587</ele>
        <time>2017-03-11T09:29:22Z</time>
      </trkpt>
      <trkpt lat="45.80565" lon="5.91883">
        <ele>587</ele>
        <time>2017-03-11T09:29:30Z</time>
      </trkpt>
      <trkpt lat="45.80596" lon="5.91893">
        <ele>587</ele>
        <time>2017-03-11T09:29:43Z</time>
      </trkpt>
      <trkpt lat="45.80619" lon="5.91901">
        <ele>585</ele>
        <time>2017-03-11T09:29:52Z</time>
      </trkpt>
      <trkpt lat="45.80646" lon="5.9191">
        <ele>587</ele>
        <time>2017-03-11T09:30:03Z</time>
      </trkpt>
      <trkpt lat="45.80677" lon="5.91921">
        <ele>586</ele>
        <time>2017-03-11T09:30:15Z</time>
      </trkpt>
      <trkpt lat="45.80711" lon="5.91954">
        <ele>586</ele>
        <time>2017-03-11T09:30:30Z</time>
      </trkpt>
      <trkpt lat="45.80719" lon="5.91975">
        <ele>586</ele>
        <time>2017-03-11T09:30:36Z</time>
      </trkpt>
      <trkpt lat="45.80727" lon="5.92017">
        <ele>586</ele>
        <time>2017-03-11T09:30:47Z</time>
      </trkpt>
      <trkpt lat="45.80727" lon="5.92066">
        <ele>586</ele>
        <time>2017-03-11T09:31:00Z</time>
      </trkpt>
      <trkpt lat="45.80754" lon="5.92088">
        <ele>586</ele>
        <time>2017-03-11T09:31:11Z</time>
      </trkpt>
      <trkpt lat="45.80776" lon="5.921">
        <ele>582</ele>
        <time>2017-03-11T09:31:20Z</time>
      </trkpt>
      <trkpt lat="45.80818" lon="5.92115">
        <ele>578</ele>
        <time>2017-03-11T09:31:33Z</time>
      </trkpt>
      <trkpt lat="45.80851" lon="5.9213">
        <ele>574</ele>
        <time>2017-03-11T09:31:44Z</time>
      </trkpt>
      <trkpt lat="45.80889" lon="5.92149">
        <ele>572</ele>
        <time>2017-03-11T09:31:57Z</time>
      </trkpt>
      <trkpt lat="45.8092" lon="5.92169">
        <ele>569</ele>
        <time>2017-03-11T09:32:08Z</time>
      </trkpt>
      <trkpt lat="45.80935" lon="5.922">
        <ele>570</ele>
        <time>2017-03-11T09:32:17Z</time>
      </trkpt>
      <trkpt lat="45.80946" lon="5.92234">
        <ele>569</ele>
        <time>2017-03-11T09:32:26Z</time>
      </trkpt>
      <trkpt lat="45.80973" lon="5.92259">
        <ele>568</ele>
        <time>2017-03-11T09:32:37Z</time>
      </trkpt>
      <trkpt lat="45.81012" lon="5.92278">
        <ele>572</ele>
        <time>2017-03-11T09:32:51Z</time>
      </trkpt>
      <trkpt lat="45.81029" lon="5.923">
        <ele>567</ele>
        <time>2017-03-11T09:32:59Z</time>
      </trkpt>
      <trkpt lat="45.81046" lon="5.92337">
        <ele>564</ele>
        <time>2017-03-11T09:33:10Z</time>
      </trkpt>
      <trkpt lat="45.81074" lon="5.92353">
        <ele>562</ele>
        <time>2017-03-11T09:33:21Z</time>
      </trkpt>
      <trkpt lat="45.81105" lon="5.92337">
        <ele>559</ele>
        <time>2017-03-11T09:33:33Z</time>
      </trkpt>
      <trkpt lat="45.81128" lon="5.92325">
        <ele>554</ele>
        <time>2017-03-11T09:33:43Z</time>
      </trkpt>
      <trkpt lat="45.81138" lon="5.92297">
        <ele>556</ele>
        <time>2017-03-11T09:33:59Z</time>
      </trkpt>
      <trkpt lat="45.81137" lon="5.92278">
        <ele>557</ele>
        <time>2017-03-11T09:34:09Z</time>
      </trkpt>
      <trkpt lat="45.81137" lon="5.92264">
        <ele>558</ele>
        <time>2017-03-11T09:34:16Z</time>
      </trkpt>
      <trkpt lat="45.81138" lon="5.92243">
        <ele>562</ele>
        <time>2017-03-11T09:34:28Z</time>
      </trkpt>
      <trkpt lat="45.81136" lon="5.92224">
        <ele>565</ele>
        <time>2017-03-11T09:34:39Z</time>
      </trkpt>
      <trkpt lat="45.81135" lon="5.92205">
        <ele>567</ele>
        <time>2017-03-11T09:34:50Z</time>
      </trkpt>
      <trkpt lat="45.81136" lon="5.92177">
        <ele>571</ele>
        <time>2017-03-11T09:35:06Z</time>
      </trkpt>
      <trkpt lat="45.81134" lon="5.92152">
        <ele>574</ele>
        <time>2017-03-11T09:35:19Z</time>
      </trkpt>
      <trkpt lat="45.81134" lon="5.92145">
        <ele>575</ele>
        <time>2017-03-11T09:35:23Z</time>
      </trkpt>
      <trkpt lat="45.81133" lon="5.92126">
        <ele>576</ele>
        <time>2017-03-11T09:35:33Z</time>
      </trkpt>
      <trkpt lat="45.8113" lon="5.92098">
        <ele>576</ele>
        <time>2017-03-11T09:35:47Z</time>
      </trkpt>
      <trkpt lat="45.81127" lon="5.92076">
        <ele>578</ele>
        <time>2017-03-11T09:35:59Z</time>
      </trkpt>
      <trkpt lat="45.81124" lon="5.92061">
        <ele>578</ele>
        <time>2017-03-11T09:36:07Z</time>
      </trkpt>
      <trkpt lat="45.81122" lon="5.92036">
        <ele>582</ele>
        <time>2017-03-11T09:36:20Z</time>
      </trkpt>
      <trkpt lat="45.81121" lon="5.92019">
        <ele>583</ele>
        <time>2017-03-11T09:36:29Z</time>
      </trkpt>
      <trkpt lat="45.8112" lon="5.91998">
        <ele>584</ele>
        <time>2017-03-11T09:36:39Z</time>
      </trkpt>
      <trkpt lat="45.81118" lon="5.91974">
        <ele>581</ele>
        <time>2017-03-11T09:36:51Z</time>
      </trkpt>
      <trkpt lat="45.81119" lon="5.91956">
        <ele>583</ele>
        <time>2017-03-11T09:37:01Z</time>
      </trkpt>
      <trkpt lat="45.81124" lon="5.91922">
        <ele>588</ele>
        <time>2017-03-11T09:37:20Z</time>
      </trkpt>
      <trkpt lat="45.81124" lon="5.91916">
        <ele>588</ele>
        <time>2017-03-11T09:37:23Z</time>
      </trkpt>
      <trkpt lat="45.81126" lon="5.91894">
        <ele>592</ele>
        <time>2017-03-11T09:37:34Z</time>
      </trkpt>
      <trkpt lat="45.81129" lon="5.91866">
        <ele>595</ele>
        <time>2017-03-11T09:37:48Z</time>
      </trkpt>
      <trkpt lat="45.81125" lon="5.91848">
        <ele>594</ele>
        <time>2017-03-11T09:37:56Z</time>
      </trkpt>
      <trkpt lat="45.81117" lon="5.91816">
        <ele>599</ele>
        <time>2017-03-11T09:38:07Z</time>
      </trkpt>
      <trkpt lat="45.81111" lon="5.91791">
        <ele>599</ele>
        <time>2017-03-11T09:38:20Z</time>
      </trkpt>
      <trkpt lat="45.81101" lon="5.9176">
        <ele>603</ele>
        <time>2017-03-11T09:38:36Z</time>
      </trkpt>
      <trkpt lat="45.81094" lon="5.9174">
        <ele>608</ele>
        <time>2017-03-11T09:38:47Z</time>
      </trkpt>
      <trkpt lat="45.81092" lon="5.91732">
        <ele>607</ele>
        <time>2017-03-11T09:38:51Z</time>
      </trkpt>
      <trkpt lat="45.81086" lon="5.91704">
        <ele>610</ele>
        <time>2017-03-11T09:39:04Z</time>
      </trkpt>
      <trkpt lat="45.81082" lon="5.91665">
        <ele>615</ele>
        <time>2017-03-11T09:39:23Z</time>
      </trkpt>
      <trkpt lat="45.81085" lon="5.91657">
        <ele>614</ele>
        <time>2017-03-11T09:39:26Z</time>
      </trkpt>
      <trkpt lat="45.81099" lon="5.9163">
        <ele>613</ele>
        <time>2017-03-11T09:39:35Z</time>
      </trkpt>
      <trkpt lat="45.8112" lon="5.9159">
        <ele>611</ele>
        <time>2017-03-11T09:39:52Z</time>
      </trkpt>
      <trkpt lat="45.81125" lon="5.91579">
        <ele>610</ele>
        <time>2017-03-11T09:39:58Z</time>
      </trkpt>
      <trkpt lat="45.81135" lon="5.91554">
        <ele>609</ele>
        <time>2017-03-11T09:40:11Z</time>
      </trkpt>
      <trkpt lat="45.81142" lon="5.91538">
        <ele>611</ele>
        <time>2017-03-11T09:40:20Z</time>
      </trkpt>
      <trkpt lat="45.8115" lon="5.91519">
        <ele>612</ele>
        <time>2017-03-11T09:40:30Z</time>
      </trkpt>
      <trkpt lat="45.81157" lon="5.91498">
        <ele>615</ele>
        <time>2017-03-11T09:40:41Z</time>
      </trkpt>
      <trkpt lat="45.81165" lon="5.91465">
        <ele>615</ele>
        <time>2017-03-11T09:40:52Z</time>
      </trkpt>
      <trkpt lat="45.8118" lon="5.91409">
        <ele>616</ele>
        <time>2017-03-11T09:41:09Z</time>
      </trkpt>
      <trkpt lat="45.8119" lon="5.91383">
        <ele>616</ele>
        <time>2017-03-11T09:41:17Z</time>
      </trkpt>
      <trkpt lat="45.81211" lon="5.91346">
        <ele>615</ele>
        <time>2017-03-11T09:41:31Z</time>
      </trkpt>
      <trkpt lat="45.81249" lon="5.9137">
        <ele>615</ele>
        <time>2017-03-11T09:41:47Z</time>
      </trkpt>
      <trkpt lat="45.81275" lon="5.91396">
        <ele>616</ele>
        <time>2017-03-11T09:42:00Z</time>
      </trkpt>
      <trkpt lat="45.81296" lon="5.91407">
        <ele>616</ele>
        <time>2017-03-11T09:42:09Z</time>
      </trkpt>
      <trkpt lat="45.81324" lon="5.91404">
        <ele>618</ele>
        <time>2017-03-11T09:42:20Z</time>
      </trkpt>
      <trkpt lat="45.81349" lon="5.91389">
        <ele>615</ele>
        <time>2017-03-11T09:42:31Z</time>
      </trkpt>
      <trkpt lat="45.8139" lon="5.91383">
        <ele>618</ele>
        <time>2017-03-11T09:42:46Z</time>
      </trkpt>
      <trkpt lat="45.81409" lon="5.91319">
        <ele>610</ele>
        <time>2017-03-11T09:43:02Z</time>
      </trkpt>
      <trkpt lat="45.81411" lon="5.91308">
        <ele>609</ele>
        <time>2017-03-11T09:43:05Z</time>
      </trkpt>
      <trkpt lat="45.81417" lon="5.91274">
        <ele>609</ele>
        <time>2017-03-11T09:43:15Z</time>
      </trkpt>
      <trkpt lat="45.81421" lon="5.91211">
        <ele>604</ele>
        <time>2017-03-11T09:43:35Z</time>
      </trkpt>
      <trkpt lat="45.81442" lon="5.91209">
        <ele>610</ele>
        <time>2017-03-11T09:43:45Z</time>
      </trkpt>
      <trkpt lat="45.81453" lon="5.91209">
        <ele>611</ele>
        <time>2017-03-11T09:43:50Z</time>
      </trkpt>
      <trkpt lat="45.81468" lon="5.91202">
        <ele>614</ele>
        <time>2017-03-11T09:43:59Z</time>
      </trkpt>
      <trkpt lat="45.81478" lon="5.91196">
        <ele>620</ele>
        <time>2017-03-11T09:44:11Z</time>
      </trkpt>
      <trkpt lat="45.81491" lon="5.91191">
        <ele>620</ele>
        <time>2017-03-11T09:44:21Z</time>
      </trkpt>
      <trkpt lat="45.8152" lon="5.91176">
        <ele>623</ele>
        <time>2017-03-11T09:44:44Z</time>
      </trkpt>
      <trkpt lat="45.81525" lon="5.91166">
        <ele>625</ele>
        <time>2017-03-11T09:44:50Z</time>
      </trkpt>
      <trkpt lat="45.8153" lon="5.91153">
        <ele>625</ele>
        <time>2017-03-11T09:44:57Z</time>
      </trkpt>
      <trkpt lat="45.81535" lon="5.91132">
        <ele>626</ele>
        <time>2017-03-11T09:45:08Z</time>
      </trkpt>
      <trkpt lat="45.8154" lon="5.91109">
        <ele>626</ele>
        <time>2017-03-11T09:45:19Z</time>
      </trkpt>
      <trkpt lat="45.81554" lon="5.91095">
        <ele>628</ele>
        <time>2017-03-11T09:45:30Z</time>
      </trkpt>
      <trkpt lat="45.81578" lon="5.91075">
        <ele>630</ele>
        <time>2017-03-11T09:45:41Z</time>
      </trkpt>
      <trkpt lat="45.81597" lon="5.91043">
        <ele>625</ele>
        <time>2017-03-11T09:45:52Z</time>
      </trkpt>
      <trkpt lat="45.81637" lon="5.91025">
        <ele>624</ele>
        <time>2017-03-11T09:46:08Z</time>
      </trkpt>
      <trkpt lat="45.8173" lon="5.91012">
        <ele>621</ele>
        <time>2017-03-11T09:46:42Z</time>
      </trkpt>
      <trkpt lat="45.81742" lon="5.91006">
        <ele>623</ele>
        <time>2017-03-11T09:46:47Z</time>
      </trkpt>
      <trkpt lat="45.81912" lon="5.9108">
        <ele>618</ele>
        <time>2017-03-11T09:47:52Z</time>
      </trkpt>
      <trkpt lat="45.81931" lon="5.91094">
        <ele>621</ele>
        <time>2017-03-11T09:48:01Z</time>
      </trkpt>
      <trkpt lat="45.81935" lon="5.91101">
        <ele>623</ele>
        <time>2017-03-11T09:48:04Z</time>
      </trkpt>
      <trkpt lat="45.82026" lon="5.91182">
        <ele>620</ele>
        <time>2017-03-11T09:48:45Z</time>
      </trkpt>
      <trkpt lat="45.82036" lon="5.91205">
        <ele>619</ele>
        <time>2017-03-11T09:48:53Z</time>
      </trkpt>
      <trkpt lat="45.82066" lon="5.91196">
        <ele>618</ele>
        <time>2017-03-11T09:49:06Z</time>
      </trkpt>
      <trkpt lat="45.82083" lon="5.91187">
        <ele>615</ele>
        <time>2017-03-11T09:49:11Z</time>
      </trkpt>
      <trkpt lat="45.82135" lon="5.91161">
        <ele>609</ele>
        <time>2017-03-11T09:49:31Z</time>
      </trkpt>
      <trkpt lat="45.82168" lon="5.91168">
        <ele>610</ele>
        <time>2017-03-11T09:49:42Z</time>
      </trkpt>
      <trkpt lat="45.8219" lon="5.91175">
        <ele>609</ele>
        <time>2017-03-11T09:49:50Z</time>
      </trkpt>
      <trkpt lat="45.82203" lon="5.91172">
        <ele>616</ele>
        <time>2017-03-11T09:50:01Z</time>
      </trkpt>
      <trkpt lat="45.82179" lon="5.91105">
        <ele>609</ele>
        <time>2017-03-11T09:50:20Z</time>
      </trkpt>
      <trkpt lat="45.82168" lon="5.9108">
        <ele>604</ele>
        <time>2017-03-11T09:50:29Z</time>
      </trkpt>
      <trkpt lat="45.82186" lon="5.91058">
        <ele>609</ele>
        <time>2017-03-11T09:50:41Z</time>
      </trkpt>
      <trkpt lat="45.82198" lon="5.91039">
        <ele>608</ele>
        <time>2017-03-11T09:50:46Z</time>
      </trkpt>
      <trkpt lat="45.82213" lon="5.9102">
        <ele>607</ele>
        <time>2017-03-11T09:50:56Z</time>
      </trkpt>
      <trkpt lat="45.82273" lon="5.9098">
        <ele>602</ele>
        <time>2017-03-11T09:51:24Z</time>
      </trkpt>
      <trkpt lat="45.82293" lon="5.90955">
        <ele>596</ele>
        <time>2017-03-11T09:51:32Z</time>
      </trkpt>
      <trkpt lat="45.82302" lon="5.90943">
        <ele>595</ele>
        <time>2017-03-11T09:51:41Z</time>
      </trkpt>
      <trkpt lat="45.82319" lon="5.9093">
        <ele>596</ele>
        <time>2017-03-11T09:51:52Z</time>
      </trkpt>
      <trkpt lat="45.82341" lon="5.90922">
        <ele>598</ele>
        <time>2017-03-11T09:52:04Z</time>
      </trkpt>
      <trkpt lat="45.82376" lon="5.90912">
        <ele>595</ele>
        <time>2017-03-11T09:52:19Z</time>
      </trkpt>
      <trkpt lat="45.82404" lon="5.90904">
        <ele>596</ele>
        <time>2017-03-11T09:52:29Z</time>
      </trkpt>
      <trkpt lat="45.82421" lon="5.90896">
        <ele>593</ele>
        <time>2017-03-11T09:52:36Z</time>
      </trkpt>
      <trkpt lat="45.82433" lon="5.9089">
        <ele>594</ele>
        <time>2017-03-11T09:52:42Z</time>
      </trkpt>
      <trkpt lat="45.82453" lon="5.90884">
        <ele>603</ele>
        <time>2017-03-11T09:52:57Z</time>
      </trkpt>
      <trkpt lat="45.82463" lon="5.9088">
        <ele>602</ele>
        <time>2017-03-11T09:53:03Z</time>
      </trkpt>
      <trkpt lat="45.82511" lon="5.90882">
        <ele>596</ele>
        <time>2017-03-11T09:53:19Z</time>
      </trkpt>
      <trkpt lat="45.82529" lon="5.90884">
        <ele>594</ele>
        <time>2017-03-11T09:53:25Z</time>
      </trkpt>
      <trkpt lat="45.82564" lon="5.90894">
        <ele>591</ele>
        <time>2017-03-11T09:53:36Z</time>
      </trkpt>
      <trkpt lat="45.82601" lon="5.90901">
        <ele>584</ele>
        <time>2017-03-11T09:53:48Z</time>
      </trkpt>
      <trkpt lat="45.82634" lon="5.90906">
        <ele>581</ele>
        <time>2017-03-11T09:53:58Z</time>
      </trkpt>
      <trkpt lat="45.82668" lon="5.90898">
        <ele>577</ele>
        <time>2017-03-11T09:54:09Z</time>
      </trkpt>
      <trkpt lat="45.82701" lon="5.90904">
        <ele>574</ele>
        <time>2017-03-11T09:54:20Z</time>
      </trkpt>
      <trkpt lat="45.82754" lon="5.90922">
        <ele>567</ele>
        <time>2017-03-11T09:54:38Z</time>
      </trkpt>
      <trkpt lat="45.82787" lon="5.90927">
        <ele>566</ele>
        <time>2017-03-11T09:54:48Z</time>
      </trkpt>
      <trkpt lat="45.82812" lon="5.90927">
        <ele>566</ele>
        <time>2017-03-11T09:54:56Z</time>
      </trkpt>
      <trkpt lat="45.82835" lon="5.90924">
        <ele>564</ele>
        <time>2017-03-11T09:55:04Z</time>
      </trkpt>
      <trkpt lat="45.82864" lon="5.90918">
        <ele>563</ele>
        <time>2017-03-11T09:55:15Z</time>
      </trkpt>
      <trkpt lat="45.82897" lon="5.90918">
        <ele>563</ele>
        <time>2017-03-11T09:55:29Z</time>
      </trkpt>
      <trkpt lat="45.82916" lon="5.90942">
        <ele>564</ele>
        <time>2017-03-11T09:55:39Z</time>
      </trkpt>
      <trkpt lat="45.8294" lon="5.90949">
        <ele>562</ele>
        <time>2017-03-11T09:55:48Z</time>
      </trkpt>
      <trkpt lat="45.82957" lon="5.9095">
        <ele>564</ele>
        <time>2017-03-11T09:55:59Z</time>
      </trkpt>
      <trkpt lat="45.82978" lon="5.90949">
        <ele>566</ele>
        <time>2017-03-11T09:56:13Z</time>
      </trkpt>
      <trkpt lat="45.82997" lon="5.90948">
        <ele>567</ele>
        <time>2017-03-11T09:56:22Z</time>
      </trkpt>
      <trkpt lat="45.83042" lon="5.90948">
        <ele>569</ele>
        <time>2017-03-11T09:56:38Z</time>
      </trkpt>
      <trkpt lat="45.83058" lon="5.90949">
        <ele>569</ele>
        <time>2017-03-11T09:56:44Z</time>
      </trkpt>
      <trkpt lat="45.83087" lon="5.90945">
        <ele>568</ele>
        <time>2017-03-11T09:56:54Z</time>
      </trkpt>
      <trkpt lat="45.83128" lon="5.9094">
        <ele>565</ele>
        <time>2017-03-11T09:57:09Z</time>
      </trkpt>
      <trkpt lat="45.83152" lon="5.90938">
        <ele>563</ele>
        <time>2017-03-11T09:57:17Z</time>
      </trkpt>
      <trkpt lat="45.83196" lon="5.90948">
        <ele>558</ele>
        <time>2017-03-11T09:57:31Z</time>
      </trkpt>
      <trkpt lat="45.83216" lon="5.90957">
        <ele>555</ele>
        <time>2017-03-11T09:57:38Z</time>
      </trkpt>
      <trkpt lat="45.83247" lon="5.90976">
        <ele>551</ele>
        <time>2017-03-11T09:57:49Z</time>
      </trkpt>
      <trkpt lat="45.8328" lon="5.90984">
        <ele>548</ele>
        <time>2017-03-11T09:58:00Z</time>
      </trkpt>
      <trkpt lat="45.83304" lon="5.91026">
        <ele>551</ele>
        <time>2017-03-11T09:58:15Z</time>
      </trkpt>
      <trkpt lat="45.833" lon="5.91065">
        <ele>564</ele>
        <time>2017-03-11T09:58:25Z</time>
      </trkpt>
      <trkpt lat="45.83197" lon="5.91239">
        <ele>527</ele>
        <time>2017-03-11T09:59:14Z</time>
      </trkpt>
      <trkpt lat="45.83183" lon="5.91245">
        <ele>519</ele>
        <time>2017-03-11T09:59:19Z</time>
      </trkpt>
      <trkpt lat="45.83153" lon="5.91265">
        <ele>510</ele>
        <time>2017-03-11T09:59:30Z</time>
      </trkpt>
      <trkpt lat="45.83131" lon="5.91312">
        <ele>503</ele>
        <time>2017-03-11T09:59:45Z</time>
      </trkpt>
      <trkpt lat="45.83119" lon="5.91343">
        <ele>514</ele>
        <time>2017-03-11T09:59:54Z</time>
      </trkpt>
      <trkpt lat="45.83077" lon="5.9138">
        <ele>536</ele>
        <time>2017-03-11T10:00:11Z</time>
      </trkpt>
      <trkpt lat="45.83071" lon="5.91375">
        <ele>515</ele>
        <time>2017-03-11T10:00:14Z</time>
      </trkpt>
      <trkpt lat="45.83059" lon="5.91367">
        <ele>534</ele>
        <time>2017-03-11T10:00:25Z</time>
      </trkpt>
      <trkpt lat="45.83054" lon="5.91374">
        <ele>506</ele>
        <time>2017-03-11T10:00:36Z</time>
      </trkpt>
      <trkpt lat="45.83034" lon="5.9141">
        <ele>570</ele>
        <time>2017-03-11T10:00:56Z</time>
      </trkpt>
      <trkpt lat="45.83036" lon="5.91416">
        <ele>532</ele>
        <time>2017-03-11T10:01:01Z</time>
      </trkpt>
      <trkpt lat="45.83043" lon="5.91441">
        <ele>568</ele>
        <time>2017-03-11T10:01:34Z</time>
      </trkpt>
      <trkpt lat="45.8304" lon="5.91446">
        <ele>555</ele>
        <time>2017-03-11T10:01:38Z</time>
      </trkpt>
      <trkpt lat="45.83024" lon="5.91541">
        <ele>509</ele>
        <time>2017-03-11T10:02:46Z</time>
      </trkpt>
      <trkpt lat="45.83022" lon="5.91545">
        <ele>507</ele>
        <time>2017-03-11T10:02:49Z</time>
      </trkpt>
      <trkpt lat="45.82969" lon="5.91647">
        <ele>517</ele>
        <time>2017-03-11T10:03:58Z</time>
      </trkpt>
      <trkpt lat="45.82967" lon="5.91656">
        <ele>519</ele>
        <time>2017-03-11T10:04:03Z</time>
      </trkpt>
      <trkpt lat="45.82964" lon="5.91668">
        <ele>520</ele>
        <time>2017-03-11T10:04:10Z</time>
      </trkpt>
      <trkpt lat="45.82957" lon="5.91696">
        <ele>522</ele>
        <time>2017-03-11T10:04:26Z</time>
      </trkpt>
      <trkpt lat="45.82957" lon="5.91706">
        <ele>524</ele>
        <time>2017-03-11T10:04:32Z</time>
      </trkpt>
      <trkpt lat="45.82961" lon="5.91731">
        <ele>529</ele>
        <time>2017-03-11T10:04:47Z</time>
      </trkpt>
      <trkpt lat="45.82967" lon="5.91753">
        <ele>530</ele>
        <time>2017-03-11T10:04:58Z</time>
      </trkpt>
      <trkpt lat="45.82969" lon="5.91766">
        <ele>531</ele>
        <time>2017-03-11T10:05:05Z</time>
      </trkpt>
      <trkpt lat="45.82961" lon="5.9178">
        <ele>532</ele>
        <time>2017-03-11T10:05:16Z</time>
      </trkpt>
      <trkpt lat="45.82936" lon="5.91794">
        <ele>536</ele>
        <time>2017-03-11T10:05:35Z</time>
      </trkpt>
      <trkpt lat="45.82933" lon="5.91797">
        <ele>537</ele>
        <time>2017-03-11T10:05:38Z</time>
      </trkpt>
      <trkpt lat="45.82917" lon="5.91809">
        <ele>539</ele>
        <time>2017-03-11T10:05:51Z</time>
      </trkpt>
      <trkpt lat="45.82905" lon="5.91824">
        <ele>541</ele>
        <time>2017-03-11T10:06:00Z</time>
      </trkpt>
      <trkpt lat="45.82896" lon="5.91855">
        <ele>543</ele>
        <time>2017-03-11T10:06:11Z</time>
      </trkpt>
      <trkpt lat="45.82908" lon="5.91912">
        <ele>538</ele>
        <time>2017-03-11T10:06:25Z</time>
      </trkpt>
      <trkpt lat="45.82915" lon="5.91941">
        <ele>541</ele>
        <time>2017-03-11T10:06:33Z</time>
      </trkpt>
      <trkpt lat="45.82889" lon="5.91987">
        <ele>547</ele>
        <time>2017-03-11T10:06:47Z</time>
      </trkpt>
      <trkpt lat="45.82891" lon="5.91985">
        <ele>545</ele>
        <time>2017-03-11T10:06:56Z</time>
      </trkpt>
      <trkpt lat="45.82896" lon="5.91987">
        <ele>545</ele>
        <time>2017-03-11T10:07:08Z</time>
      </trkpt>
      <trkpt lat="45.82896" lon="5.91984">
        <ele>546</ele>
        <time>2017-03-11T10:07:17Z</time>
      </trkpt>
      <trkpt lat="45.82897" lon="5.91983">
        <ele>546</ele>
        <time>2017-03-11T10:07:29Z</time>
      </trkpt>
      <trkpt lat="45.82899" lon="5.91981">
        <ele>544</ele>
        <time>2017-03-11T10:07:40Z</time>
      </trkpt>
      <trkpt lat="45.82899" lon="5.9198">
        <ele>544</ele>
        <time>2017-03-11T10:07:50Z</time>
      </trkpt>
      <trkpt lat="45.829" lon="5.91979">
        <ele>544</ele>
        <time>2017-03-11T10:08:01Z</time>
      </trkpt>
      <trkpt lat="45.829" lon="5.91978">
        <ele>543</ele>
        <time>2017-03-11T10:08:12Z</time>
      </trkpt>
      <trkpt lat="45.829" lon="5.91977">
        <ele>543</ele>
        <time>2017-03-11T10:08:23Z</time>
      </trkpt>
      <trkpt lat="45.829" lon="5.91977">
        <ele>543</ele>
        <time>2017-03-11T10:08:34Z</time>
      </trkpt>
      <trkpt lat="45.82901" lon="5.91977">
        <ele>544</ele>
        <time>2017-03-11T10:08:45Z</time>
      </trkpt>
      <trkpt lat="45.82902" lon="5.91977">
        <ele>543</ele>
        <time>2017-03-11T10:08:56Z</time>
      </trkpt>
      <trkpt lat="45.82901" lon="5.91977">
        <ele>542</ele>
        <time>2017-03-11T10:09:07Z</time>
      </trkpt>
      <trkpt lat="45.82901" lon="5.91978">
        <ele>542</ele>
        <time>2017-03-11T10:09:18Z</time>
      </trkpt>
      <trkpt lat="45.82901" lon="5.91978">
        <ele>542</ele>
        <time>2017-03-11T10:09:29Z</time>
      </trkpt>
      <trkpt lat="45.82901" lon="5.91978">
        <ele>542</ele>
        <time>2017-03-11T10:09:40Z</time>
      </trkpt>
      <trkpt lat="45.82901" lon="5.91978">
        <ele>542</ele>
        <time>2017-03-11T10:09:51Z</time>
      </trkpt>
      <trkpt lat="45.82901" lon="5.91978">
        <ele>542</ele>
        <time>2017-03-11T10:10:02Z</time>
      </trkpt>
      <trkpt lat="45.82901" lon="5.91976">
        <ele>543</ele>
        <time>2017-03-11T10:10:13Z</time>
      </trkpt>
      <trkpt lat="45.82902" lon="5.91975">
        <ele>543</ele>
        <time>2017-03-11T10:10:24Z</time>
      </trkpt>
      <trkpt lat="45.82903" lon="5.91974">
        <ele>542</ele>
        <time>2017-03-11T10:10:35Z</time>
      </trkpt>
      <trkpt lat="45.82903" lon="5.91974">
        <ele>542</ele>
        <time>2017-03-11T10:10:46Z</time>
      </trkpt>
      <trkpt lat="45.82903" lon="5.91973">
        <ele>540</ele>
        <time>2017-03-11T10:10:57Z</time>
      </trkpt>
      <trkpt lat="45.82904" lon="5.9197">
        <ele>541</ele>
        <time>2017-03-11T10:11:08Z</time>
      </trkpt>
      <trkpt lat="45.82903" lon="5.91968">
        <ele>543</ele>
        <time>2017-03-11T10:11:19Z</time>
      </trkpt>
      <trkpt lat="45.82898" lon="5.91979">
        <ele>543</ele>
        <time>2017-03-11T10:11:32Z</time>
      </trkpt>
      <trkpt lat="45.82898" lon="5.9198">
        <ele>544</ele>
        <time>2017-03-11T10:11:41Z</time>
      </trkpt>
      <trkpt lat="45.82898" lon="5.9198">
        <ele>544</ele>
        <time>2017-03-11T10:11:52Z</time>
      </trkpt>
      <trkpt lat="45.82898" lon="5.9198">
        <ele>544</ele>
        <time>2017-03-11T10:12:03Z</time>
      </trkpt>
      <trkpt lat="45.82898" lon="5.9198">
        <ele>543</ele>
        <time>2017-03-11T10:12:14Z</time>
      </trkpt>
      <trkpt lat="45.82898" lon="5.9198">
        <ele>541</ele>
        <time>2017-03-11T10:12:25Z</time>
      </trkpt>
      <trkpt lat="45.82897" lon="5.91981">
        <ele>543</ele>
        <time>2017-03-11T10:12:36Z</time>
      </trkpt>
      <trkpt lat="45.82897" lon="5.91982">
        <ele>543</ele>
        <time>2017-03-11T10:12:48Z</time>
      </trkpt>
      <trkpt lat="45.82898" lon="5.91981">
        <ele>542</ele>
        <time>2017-03-11T10:12:58Z</time>
      </trkpt>
      <trkpt lat="45.82898" lon="5.91981">
        <ele>542</ele>
        <time>2017-03-11T10:13:09Z</time>
      </trkpt>
      <trkpt lat="45.82898" lon="5.91981">
        <ele>542</ele>
        <time>2017-03-11T10:13:20Z</time>
      </trkpt>
      <trkpt lat="45.82897" lon="5.91982">
        <ele>542</ele>
        <time>2017-03-11T10:13:32Z</time>
      </trkpt>
      <trkpt lat="45.82896" lon="5.91984">
        <ele>541</ele>
        <time>2017-03-11T10:13:42Z</time>
      </trkpt>
      <trkpt lat="45.82896" lon="5.91984">
        <ele>541</ele>
        <time>2017-03-11T10:13:53Z</time>
      </trkpt>
      <trkpt lat="45.82895" lon="5.91984">
        <ele>541</ele>
        <time>2017-03-11T10:14:04Z</time>
      </trkpt>
      <trkpt lat="45.82894" lon="5.91985">
        <ele>540</ele>
        <time>2017-03-11T10:14:15Z</time>
      </trkpt>
      <trkpt lat="45.82894" lon="5.91985">
        <ele>540</ele>
        <time>2017-03-11T10:14:26Z</time>
      </trkpt>
      <trkpt lat="45.82892" lon="5.91984">
        <ele>541</ele>
        <time>2017-03-11T10:14:37Z</time>
      </trkpt>
      <trkpt lat="45.82894" lon="5.91986">
        <ele>541</ele>
        <time>2017-03-11T10:14:48Z</time>
      </trkpt>
      <trkpt lat="45.82895" lon="5.91992">
        <ele>540</ele>
        <time>2017-03-11T10:14:59Z</time>
      </trkpt>
      <trkpt lat="45.82897" lon="5.91994">
        <ele>540</ele>
        <time>2017-03-11T10:15:10Z</time>
      </trkpt>
      <trkpt lat="45.82897" lon="5.91993">
        <ele>540</ele>
        <time>2017-03-11T10:15:21Z</time>
      </trkpt>
      <trkpt lat="45.82896" lon="5.91993">
        <ele>540</ele>
        <time>2017-03-11T10:15:32Z</time>
      </trkpt>
      <trkpt lat="45.82893" lon="5.91982">
        <ele>540</ele>
        <time>2017-03-11T10:15:43Z</time>
      </trkpt>
      <trkpt lat="45.82892" lon="5.91984">
        <ele>540</ele>
        <time>2017-03-11T10:15:54Z</time>
      </trkpt>
      <trkpt lat="45.82892" lon="5.91984">
        <ele>539</ele>
        <time>2017-03-11T10:16:05Z</time>
      </trkpt>
      <trkpt lat="45.82894" lon="5.91996">
        <ele>541</ele>
        <time>2017-03-11T10:16:16Z</time>
      </trkpt>
      <trkpt lat="45.82895" lon="5.91997">
        <ele>542</ele>
        <time>2017-03-11T10:16:27Z</time>
      </trkpt>
      <trkpt lat="45.82892" lon="5.91987">
        <ele>542</ele>
        <time>2017-03-11T10:16:38Z</time>
      </trkpt>
      <trkpt lat="45.82892" lon="5.91988">
        <ele>542</ele>
        <time>2017-03-11T10:16:49Z</time>
      </trkpt>
      <trkpt lat="45.82895" lon="5.91992">
        <ele>542</ele>
        <time>2017-03-11T10:17:00Z</time>
      </trkpt>
      <trkpt lat="45.82896" lon="5.9199">
        <ele>541</ele>
        <time>2017-03-11T10:17:11Z</time>
      </trkpt>
      <trkpt lat="45.82896" lon="5.9199">
        <ele>541</ele>
        <time>2017-03-11T10:17:22Z</time>
      </trkpt>
      <trkpt lat="45.82896" lon="5.9199">
        <ele>541</ele>
        <time>2017-03-11T10:17:33Z</time>
      </trkpt>
      <trkpt lat="45.82896" lon="5.9199">
        <ele>541</ele>
        <time>2017-03-11T10:17:44Z</time>
      </trkpt>
      <trkpt lat="45.82896" lon="5.9199">
        <ele>541</ele>
        <time>2017-03-11T10:17:55Z</time>
      </trkpt>
      <trkpt lat="45.82896" lon="5.9199">
        <ele>541</ele>
        <time>2017-03-11T10:18:06Z</time>
      </trkpt>
      <trkpt lat="45.82896" lon="5.91992">
        <ele>541</ele>
        <time>2017-03-11T10:18:17Z</time>
      </trkpt>
      <trkpt lat="45.82898" lon="5.9199">
        <ele>541</ele>
        <time>2017-03-11T10:18:28Z</time>
      </trkpt>
      <trkpt lat="45.82901" lon="5.91977">
        <ele>543</ele>
        <time>2017-03-11T10:18:48Z</time>
      </trkpt>
      <trkpt lat="45.82901" lon="5.91977">
        <ele>542</ele>
        <time>2017-03-11T10:18:53Z</time>
      </trkpt>
      <trkpt lat="45.82901" lon="5.91977">
        <ele>542</ele>
        <time>2017-03-11T10:19:01Z</time>
      </trkpt>
      <trkpt lat="45.82903" lon="5.91975">
        <ele>541</ele>
        <time>2017-03-11T10:19:12Z</time>
      </trkpt>
      <trkpt lat="45.82902" lon="5.91975">
        <ele>541</ele>
        <time>2017-03-11T10:19:23Z</time>
      </trkpt>
      <trkpt lat="45.82902" lon="5.91975">
        <ele>541</ele>
        <time>2017-03-11T10:19:34Z</time>
      </trkpt>
      <trkpt lat="45.82902" lon="5.91975">
        <ele>541</ele>
        <time>2017-03-11T10:19:45Z</time>
      </trkpt>
      <trkpt lat="45.82902" lon="5.91975">
        <ele>541</ele>
        <time>2017-03-11T10:19:56Z</time>
      </trkpt>
      <trkpt lat="45.82903" lon="5.91973">
        <ele>541</ele>
        <time>2017-03-11T10:20:07Z</time>
      </trkpt>
      <trkpt lat="45.82902" lon="5.91972">
        <ele>542</ele>
        <time>2017-03-11T10:20:18Z</time>
      </trkpt>
      <trkpt lat="45.82902" lon="5.91972">
        <ele>542</ele>
        <time>2017-03-11T10:20:29Z</time>
      </trkpt>
      <trkpt lat="45.82902" lon="5.91972">
        <ele>542</ele>
        <time>2017-03-11T10:20:40Z</time>
      </trkpt>
      <trkpt lat="45.82902" lon="5.91972">
        <ele>542</ele>
        <time>2017-03-11T10:20:51Z</time>
      </trkpt>
      <trkpt lat="45.82902" lon="5.91972">
        <ele>542</ele>
        <time>2017-03-11T10:21:02Z</time>
      </trkpt>
      <trkpt lat="45.82908" lon="5.91965">
        <ele>542</ele>
        <time>2017-03-11T10:21:13Z</time>
      </trkpt>
      <trkpt lat="45.82912" lon="5.91962">
        <ele>540</ele>
        <time>2017-03-11T10:21:24Z</time>
      </trkpt>
      <trkpt lat="45.82913" lon="5.91962">
        <ele>540</ele>
        <time>2017-03-11T10:21:35Z</time>
      </trkpt>
      <trkpt lat="45.82913" lon="5.91961">
        <ele>540</ele>
        <time>2017-03-11T10:21:46Z</time>
      </trkpt>
      <trkpt lat="45.82913" lon="5.91961">
        <ele>540</ele>
        <time>2017-03-11T10:21:57Z</time>
      </trkpt>
      <trkpt lat="45.82913" lon="5.91961">
        <ele>540</ele>
        <time>2017-03-11T10:22:08Z</time>
      </trkpt>
      <trkpt lat="45.82914" lon="5.91961">
        <ele>540</ele>
        <time>2017-03-11T10:22:19Z</time>
      </trkpt>
      <trkpt lat="45.82914" lon="5.91961">
        <ele>540</ele>
        <time>2017-03-11T10:22:30Z</time>
      </trkpt>
      <trkpt lat="45.82914" lon="5.91961">
        <ele>540</ele>
        <time>2017-03-11T10:22:41Z</time>
      </trkpt>
      <trkpt lat="45.82915" lon="5.91961">
        <ele>540</ele>
        <time>2017-03-11T10:22:52Z</time>
      </trkpt>
      <trkpt lat="45.82915" lon="5.91961">
        <ele>540</ele>
        <time>2017-03-11T10:23:03Z</time>
      </trkpt>
    </trkseg>
  </trk>
</gpx>